TISX/STX METAR and TAF weather

Enter ICAO airport designator
Station Type Date Time Source
TISX METAR 2021/07/27 21:53 UTC NOAA

TISX 272153Z 06014G17KT 10SM SCT022 SCT030 29/23 A2998 RMK AO2 SLP150 T02940233


Station Type Date Time Source
TISX Decoded METAR 2021/07/27 21:53 UTC NOAA

Christiansted, Henry E. Rohlsen Airport, Virgin Islands (TISX) 17-42N 064-48W 17M
Jul 27, 2021 - 05:53 PM EDT / 2021.07.27 2153 UTC
Wind: from the ENE (060 degrees) at 16 MPH (14 KT) gusting to 20 MPH (17 KT):0
Visibility: 10 mile(s):0
Sky conditions: partly cloudy
Temperature: 84.9 F (29.4 C)
Dew Point: 73.9 F (23.3 C)
Relative Humidity: 69%
Pressure (altimeter): 29.98 in. Hg (1015 hPa)
ob: TISX 272153Z 06014G17KT 10SM SCT022 SCT030 29/23 A2998 RMK AO2 SLP150 T02940233
cycle: 22

Station Type Date Time Source
TISX TAF 2021/07/27 18:37 UTC NOAA

TAF TISX 271731Z 2718/2818 08015G23KT P6SM FEW025 SCT035
FM272200 06010KT P6SM FEW030
FM280600 05006KT P6SM VCSH SCT025 SCT050

Example: see airport list